sensor_id;sensor_type;location;lat;lon;timestamp;pressure;altitude;pressure_sealevel;temperature;humidity
42385;BME280;28042;43.986;22.860;2022-11-15T00:00:03;102129.63;;;7.08;100.00
42385;BME280;28042;43.986;22.860;2022-11-15T00:02:28;102124.06;;;7.00;100.00
42385;BME280;28042;43.986;22.860;2022-11-15T00:04:54;102070.59;;;6.72;100.00
42385;BME280;28042;43.986;22.860;2022-11-15T00:07:19;102118.63;;;7.00;100.00
42385;BME280;28042;43.986;22.860;2022-11-15T00:09:45;102044.03;;;6.56;100.00
42385;BME280;28042;43.986;22.860;2022-11-15T00:12:10;102076.91;;;6.82;100.00
42385;BME280;28042;43.986;22.860;2022-11-15T00:14:36;102115.22;;;7.08;100.00
42385;BME280;28042;43.986;22.860;2022-11-15T00:17:01;102119.22;;;7.14;100.00
42385;BME280;28042;43.986;22.860;2022-11-15T00:19:27;102076.34;;;6.88;100.00
42385;BME280;28042;43.986;22.860;2022-11-15T00:21:52;102103.50;;;7.07;100.00
42385;BME280;28042;43.986;22.860;2022-11-15T00:24:18;102057.22;;;6.80;100.00
42385;BME280;28042;43.986;22.860;2022-11-15T00:26:43;102060.94;;;6.79;100.00
42385;BME280;28042;43.986;22.860;2022-11-15T00:29:09;102072.34;;;6.92;100.00
42385;BME280;28042;43.986;22.860;2022-11-15T00:31:34;102103.22;;;7.11;100.00
42385;BME280;28042;43.986;22.860;2022-11-15T00:33:59;102107.53;;;7.13;100.00
42385;BME280;28042;43.986;22.860;2022-11-15T00:36:25;102048.94;;;6.91;100.00
42385;BME280;28042;43.986;22.860;2022-11-15T00:38:50;102066.09;;;7.01;100.00
42385;BME280;28042;43.986;22.860;2022-11-15T00:41:16;102096.94;;;7.20;100.00
42385;BME280;28042;43.986;22.860;2022-11-15T00:43:41;102103.50;;;7.17;100.00
42385;BME280;28042;43.986;22.860;2022-11-15T00:46:09;102099.25;;;7.15;100.00
42385;BME280;28042;43.986;22.860;2022-11-15T00:48:35;102040.66;;;6.83;100.00
42385;BME280;28042;43.986;22.860;2022-11-15T00:51:01;102044.06;;;6.85;100.00
42385;BME280;28042;43.986;22.860;2022-11-15T00:53:26;102047.94;;;6.92;100.00
42385;BME280;28042;43.986;22.860;2022-11-15T00:55:52;102051.50;;;7.02;100.00
42385;BME280;28042;43.986;22.860;2022-11-15T00:58:18;102043.22;;;6.94;100.00
42385;BME280;28042;43.986;22.860;2022-11-15T01:00:43;102043.81;;;6.88;100.00
42385;BME280;28042;43.986;22.860;2022-11-15T01:03:09;102040.50;;;6.85;100.00
42385;BME280;28042;43.986;22.860;2022-11-15T01:05:37;102093.53;;;7.18;100.00
42385;BME280;28042;43.986;22.860;2022-11-15T01:08:03;102090.81;;;7.18;100.00
42385;BME280;28042;43.986;22.860;2022-11-15T01:10:29;102088.38;;;7.15;100.00
42385;BME280;28042;43.986;22.860;2022-11-15T01:12:54;102043.22;;;6.94;100.00
42385;BME280;28042;43.986;22.860;2022-11-15T01:15:20;102066.38;;;7.08;100.00
42385;BME280;28042;43.986;22.860;2022-11-15T01:17:45;102072.66;;;7.08;100.00
42385;BME280;28042;43.986;22.860;2022-11-15T01:20:11;102049.38;;;6.96;100.00
42385;BME280;28042;43.986;22.860;2022-11-15T01:22:37;102066.69;;;7.15;100.00
42385;BME280;28042;43.986;22.860;2022-11-15T01:25:02;102066.22;;;7.09;100.00
42385;BME280;28042;43.986;22.860;2022-11-15T01:27:28;102024.22;;;6.94;100.00
42385;BME280;28042;43.986;22.860;2022-11-15T01:29:53;102059.69;;;7.22;100.00
42385;BME280;28042;43.986;22.860;2022-11-15T01:32:19;102035.81;;;7.06;100.00
42385;BME280;28042;43.986;22.860;2022-11-15T01:34:44;102011.97;;;7.00;100.00
42385;BME280;28042;43.986;22.860;2022-11-15T01:37:10;102078.69;;;7.31;100.00
42385;BME280;28042;43.986;22.860;2022-11-15T01:39:35;102060.41;;;7.24;100.00
42385;BME280;28042;43.986;22.860;2022-11-15T01:42:01;102007.00;;;6.95;100.00
42385;BME280;28042;43.986;22.860;2022-11-15T01:44:47;102059.94;;;7.38;100.00
42385;BME280;28042;43.986;22.860;2022-11-15T01:47:19;102055.81;;;7.34;100.00
42385;BME280;28042;43.986;22.860;2022-11-15T01:49:55;102048.09;;;7.29;100.00
42385;BME280;28042;43.986;22.860;2022-11-15T01:52:24;102054.09;;;7.33;100.00
42385;BME280;28042;43.986;22.860;2022-11-15T01:54:55;102009.25;;;7.09;100.00
42385;BME280;28042;43.986;22.860;2022-11-15T01:57:22;102003.56;;;7.13;100.00
42385;BME280;28042;43.986;22.860;2022-11-15T01:59:47;101989.69;;;7.16;100.00
42385;BME280;28042;43.986;22.860;2022-11-15T02:02:13;101996.28;;;7.23;100.00
42385;BME280;28042;43.986;22.860;2022-11-15T02:04:45;102048.09;;;7.58;100.00
42385;BME280;28042;43.986;22.860;2022-11-15T02:07:12;101991.69;;;7.33;100.00
42385;BME280;28042;43.986;22.860;2022-11-15T02:09:39;101986.66;;;7.28;100.00
42385;BME280;28042;43.986;22.860;2022-11-15T02:12:06;102034.91;;;7.63;100.00
42385;BME280;28042;43.986;22.860;2022-11-15T02:14:34;102036.34;;;7.68;100.00
42385;BME280;28042;43.986;22.860;2022-11-15T02:25:29;101985.78;;;7.37;100.00
42385;BME280;28042;43.986;22.860;2022-11-15T02:36:24;102024.16;;;7.72;100.00
42385;BME280;28042;43.986;22.860;2022-11-15T02:42:02;101980.66;;;7.44;100.00
42385;BME280;28042;43.986;22.860;2022-11-15T02:44:35;102017.72;;;7.73;100.00
42385;BME280;28042;43.986;22.860;2022-11-15T02:47:07;101996.31;;;7.70;100.00
42385;BME280;28042;43.986;22.860;2022-11-15T02:49:40;102012.31;;;7.73;100.00
42385;BME280;28042;43.986;22.860;2022-11-15T02:52:06;102004.34;;;7.61;100.00
42385;BME280;28042;43.986;22.860;2022-11-15T02:54:34;102002.59;;;7.70;100.00
42385;BME280;28042;43.986;22.860;2022-11-15T02:57:12;102010.91;;;7.69;100.00
42385;BME280;28042;43.986;22.860;2022-11-15T03:08:13;101951.25;;;7.40;100.00
42385;BME280;28042;43.986;22.860;2022-11-15T03:15:57;102012.03;;;7.76;100.00
42385;BME280;28042;43.986;22.860;2022-11-15T03:18:38;101996.91;;;7.73;100.00
42385;BME280;28042;43.986;22.860;2022-11-15T03:21:08;101992.06;;;7.57;100.00
42385;BME280;28042;43.986;22.860;2022-11-15T03:23:36;101983.19;;;7.55;100.00
42385;BME280;28042;43.986;22.860;2022-11-15T03:26:05;101951.78;;;7.43;100.00
42385;BME280;28042;43.986;22.860;2022-11-15T03:28:54;101945.09;;;7.47;100.00
42385;BME280;28042;43.986;22.860;2022-11-15T03:31:21;101995.44;;;7.79;100.00
42385;BME280;28042;43.986;22.860;2022-11-15T03:34:10;101946.91;;;7.47;100.00
42385;BME280;28042;43.986;22.860;2022-11-15T03:36:38;101932.09;;;7.41;100.00
42385;BME280;28042;43.986;22.860;2022-11-15T03:39:06;101958.31;;;7.60;100.00
42385;BME280;28042;43.986;22.860;2022-11-15T03:41:40;101982.59;;;7.71;100.00
42385;BME280;28042;43.986;22.860;2022-11-15T03:49:52;101977.16;;;7.71;100.00
42385;BME280;28042;43.986;22.860;2022-11-15T03:52:20;101977.72;;;7.75;100.00
42385;BME280;28042;43.986;22.860;2022-11-15T03:54:54;101970.84;;;7.71;100.00
42385;BME280;28042;43.986;22.860;2022-11-15T03:57:20;101960.31;;;7.68;100.00
42385;BME280;28042;43.986;22.860;2022-11-15T03:59:45;101927.66;;;7.40;100.00
42385;BME280;28042;43.986;22.860;2022-11-15T04:02:13;101946.06;;;7.46;100.00
42385;BME280;28042;43.986;22.860;2022-11-15T04:04:38;101933.53;;;7.26;100.00
42385;BME280;28042;43.986;22.860;2022-11-15T04:07:04;101972.09;;;7.39;100.00
42385;BME280;28042;43.986;22.860;2022-11-15T04:09:29;101973.53;;;7.33;100.00
42385;BME280;28042;43.986;22.860;2022-11-15T04:11:55;101969.13;;;7.32;100.00
42385;BME280;28042;43.986;22.860;2022-11-15T04:14:20;101934.56;;;7.15;100.00
42385;BME280;28042;43.986;22.860;2022-11-15T04:16:46;101951.84;;;7.24;100.00
42385;BME280;28042;43.986;22.860;2022-11-15T04:19:11;101918.59;;;7.02;100.00
42385;BME280;28042;43.986;22.860;2022-11-15T04:21:55;101951.53;;;7.27;100.00
42385;BME280;28042;43.986;22.860;2022-11-15T04:24:39;101947.81;;;7.28;100.00
42385;BME280;28042;43.986;22.860;2022-11-15T04:27:05;101930.41;;;7.11;100.00
42385;BME280;28042;43.986;22.860;2022-11-15T04:29:30;101905.00;;;7.02;100.00
42385;BME280;28042;43.986;22.860;2022-11-15T04:32:06;101954.25;;;7.27;100.00
42385;BME280;28042;43.986;22.860;2022-11-15T04:34:32;101925.00;;;7.01;100.00
42385;BME280;28042;43.986;22.860;2022-11-15T04:36:58;101888.19;;;6.89;100.00
42385;BME280;28042;43.986;22.860;2022-11-15T04:39:41;101938.41;;;7.22;100.00
42385;BME280;28042;43.986;22.860;2022-11-15T04:42:07;101937.25;;;7.25;100.00
42385;BME280;28042;43.986;22.860;2022-11-15T04:44:33;101877.06;;;6.92;100.00
42385;BME280;28042;43.986;22.860;2022-11-15T04:46:58;101888.75;;;7.02;100.00
42385;BME280;28042;43.986;22.860;2022-11-15T04:49:23;101893.28;;;7.12;100.00
42385;BME280;28042;43.986;22.860;2022-11-15T04:51:49;101933.53;;;7.35;100.00
42385;BME280;28042;43.986;22.860;2022-11-15T04:54:14;101928.13;;;7.26;100.00
42385;BME280;28042;43.986;22.860;2022-11-15T04:56:40;101937.81;;;7.28;100.00
42385;BME280;28042;43.986;22.860;2022-11-15T04:59:05;101943.84;;;7.22;100.00
42385;BME280;28042;43.986;22.860;2022-11-15T05:01:31;101872.19;;;6.86;100.00
42385;BME280;28042;43.986;22.860;2022-11-15T05:03:56;101926.84;;;7.11;100.00
42385;BME280;28042;43.986;22.860;2022-11-15T05:06:40;101886.91;;;6.84;100.00
42385;BME280;28042;43.986;22.860;2022-11-15T05:09:06;101923.56;;;7.17;100.00
42385;BME280;28042;43.986;22.860;2022-11-15T05:11:31;101865.06;;;6.85;100.00
42385;BME280;28042;43.986;22.860;2022-11-15T05:13:57;101880.78;;;6.91;100.00
42385;BME280;28042;43.986;22.860;2022-11-15T05:16:22;101925.00;;;7.11;100.00
42385;BME280;28042;43.986;22.860;2022-11-15T05:18:54;101913.75;;;7.06;100.00
42385;BME280;28042;43.986;22.860;2022-11-15T05:21:20;101876.50;;;6.79;100.00
42385;BME280;28042;43.986;22.860;2022-11-15T05:23:45;101912.28;;;7.12;100.00
42385;BME280;28042;43.986;22.860;2022-11-15T05:26:11;101924.28;;;7.19;100.00
42385;BME280;28042;43.986;22.860;2022-11-15T05:28:37;101915.59;;;7.05;100.00
42385;BME280;28042;43.986;22.860;2022-11-15T05:31:05;101915.59;;;7.05;100.00
42385;BME280;28042;43.986;22.860;2022-11-15T05:33:31;101922.69;;;7.26;100.00
42385;BME280;28042;43.986;22.860;2022-11-15T05:36:04;101876.59;;;7.06;100.00
42385;BME280;28042;43.986;22.860;2022-11-15T05:38:30;101897.25;;;7.27;100.00
42385;BME280;28042;43.986;22.860;2022-11-15T05:40:56;101884.19;;;7.13;100.00
42385;BME280;28042;43.986;22.860;2022-11-15T05:43:23;101905.13;;;7.30;100.00
42385;BME280;28042;43.986;22.860;2022-11-15T05:45:48;101919.53;;;7.21;100.00
42385;BME280;28042;43.986;22.860;2022-11-15T05:48:14;101868.66;;;6.95;100.00
42385;BME280;28042;43.986;22.860;2022-11-15T05:50:43;101881.06;;;6.98;100.00
42385;BME280;28042;43.986;22.860;2022-11-15T05:53:13;101926.09;;;7.28;100.00
42385;BME280;28042;43.986;22.860;2022-11-15T05:55:40;101932.97;;;7.32;100.00
42385;BME280;28042;43.986;22.860;2022-11-15T05:58:07;101889.59;;;7.13;100.00
42385;BME280;28042;43.986;22.860;2022-11-15T06:00:32;101932.66;;;7.35;100.00
42385;BME280;28042;43.986;22.860;2022-11-15T06:02:58;101922.69;;;7.26;100.00
42385;BME280;28042;43.986;22.860;2022-11-15T06:05:23;101913.84;;;7.24;100.00
42385;BME280;28042;43.986;22.860;2022-11-15T06:07:49;101903.25;;;7.21;100.00
42385;BME280;28042;43.986;22.860;2022-11-15T06:10:14;101859.63;;;6.95;100.00
42385;BME280;28042;43.986;22.860;2022-11-15T06:12:40;101879.16;;;7.08;100.00
42385;BME280;28042;43.986;22.860;2022-11-15T06:15:06;101916.69;;;7.32;100.00
42385;BME280;28042;43.986;22.860;2022-11-15T06:17:31;101907.41;;;7.25;100.00
42385;BME280;28042;43.986;22.860;2022-11-15T06:19:57;101910.25;;;7.33;100.00
42385;BME280;28042;43.986;22.860;2022-11-15T06:22:22;101897.22;;;7.36;100.00
42385;BME280;28042;43.986;22.860;2022-11-15T06:24:48;101917.06;;;7.47;100.00
42385;BME280;28042;43.986;22.860;2022-11-15T06:27:14;101909.03;;;7.55;100.00
42385;BME280;28042;43.986;22.860;2022-11-15T06:29:39;101919.19;;;7.53;100.00
42385;BME280;28042;43.986;22.860;2022-11-15T06:32:05;101886.53;;;7.35;100.00
42385;BME280;28042;43.986;22.860;2022-11-15T06:34:30;101932.72;;;7.62;100.00
42385;BME280;28042;43.986;22.860;2022-11-15T06:36:56;101890.66;;;7.39;100.00
42385;BME280;28042;43.986;22.860;2022-11-15T06:39:21;101924.88;;;7.59;100.00
42385;BME280;28042;43.986;22.860;2022-11-15T06:41:47;101920.63;;;7.57;100.00
42385;BME280;28042;43.986;22.860;2022-11-15T06:44:12;101872.56;;;7.30;100.00
42385;BME280;28042;43.986;22.860;2022-11-15T06:46:38;101872.25;;;7.33;100.00
42385;BME280;28042;43.986;22.860;2022-11-15T06:49:03;101888.50;;;7.43;100.00
42385;BME280;28042;43.986;22.860;2022-11-15T06:51:28;101893.19;;;7.50;100.00
42385;BME280;28042;43.986;22.860;2022-11-15T06:53:54;101922.28;;;7.68;100.00
42385;BME280;28042;43.986;22.860;2022-11-15T06:56:19;101899.44;;;7.60;100.00
42385;BME280;28042;43.986;22.860;2022-11-15T06:58:45;101871.38;;;7.42;100.00
42385;BME280;28042;43.986;22.860;2022-11-15T07:01:12;101912.00;;;7.61;100.00
42385;BME280;28042;43.986;22.860;2022-11-15T07:03:39;101916.00;;;7.67;100.00
42385;BME280;28042;43.986;22.860;2022-11-15T07:06:05;101875.25;;;7.40;100.00
42385;BME280;28042;43.986;22.860;2022-11-15T07:08:31;101891.19;;;7.52;100.00
42385;BME280;28042;43.986;22.860;2022-11-15T07:10:59;101869.78;;;7.49;100.00
42385;BME280;28042;43.986;22.860;2022-11-15T07:13:26;101913.41;;;7.75;100.00
42385;BME280;28042;43.986;22.860;2022-11-15T07:15:52;101870.25;;;7.62;100.00
42385;BME280;28042;43.986;22.860;2022-11-15T07:18:18;101887.09;;;7.76;100.00
42385;BME280;28042;43.986;22.860;2022-11-15T07:20:44;101914.75;;;7.89;100.00
42385;BME280;28042;43.986;22.860;2022-11-15T07:23:09;101904.78;;;7.80;100.00
42385;BME280;28042;43.986;22.860;2022-11-15T07:25:35;101906.06;;;7.85;100.00
42385;BME280;28042;43.986;22.860;2022-11-15T07:28:01;101856.41;;;7.65;100.00
42385;BME280;28042;43.986;22.860;2022-11-15T07:30:28;101897.25;;;8.01;100.00
42385;BME280;28042;43.986;22.860;2022-11-15T07:32:59;101858.91;;;7.77;100.00
42385;BME280;28042;43.986;22.860;2022-11-15T07:35:27;101900.91;;;8.10;100.00
42385;BME280;28042;43.986;22.860;2022-11-15T07:37:56;101900.06;;;8.09;100.00
42385;BME280;28042;43.986;22.860;2022-11-15T07:40:22;101843.03;;;7.82;100.00
42385;BME280;28042;43.986;22.860;2022-11-15T07:42:48;101837.88;;;7.79;100.00
42385;BME280;28042;43.986;22.860;2022-11-15T07:45:21;101890.09;;;8.00;100.00
42385;BME280;28042;43.986;22.860;2022-11-15T07:47:50;101892.00;;;8.17;100.00
42385;BME280;28042;43.986;22.860;2022-11-15T07:50:16;101844.91;;;7.99;100.00
42385;BME280;28042;43.986;22.860;2022-11-15T07:52:42;101886.25;;;8.20;100.00
42385;BME280;28042;43.986;22.860;2022-11-15T07:55:08;101876.47;;;8.28;100.00
42385;BME280;28042;43.986;22.860;2022-11-15T07:57:34;101879.00;;;8.39;100.00
42385;BME280;28042;43.986;22.860;2022-11-15T07:59:59;101817.69;;;8.09;100.00
42385;BME280;28042;43.986;22.860;2022-11-15T08:02:25;101865.81;;;8.44;100.00
42385;BME280;28042;43.986;22.860;2022-11-15T08:04:50;101873.41;;;8.58;100.00
42385;BME280;28042;43.986;22.860;2022-11-15T08:07:16;101869.66;;;8.59;100.00
42385;BME280;28042;43.986;22.860;2022-11-15T08:09:41;101860.44;;;8.70;100.00
42385;BME280;28042;43.986;22.860;2022-11-15T08:12:07;101857.63;;;8.80;100.00
42385;BME280;28042;43.986;22.860;2022-11-15T08:14:32;101858.16;;;8.83;100.00
42385;BME280;28042;43.986;22.860;2022-11-15T08:16:58;101861.63;;;8.93;100.00
42385;BME280;28042;43.986;22.860;2022-11-15T08:19:24;101856.72;;;8.97;100.00
42385;BME280;28042;43.986;22.860;2022-11-15T08:21:49;101851.72;;;9.10;100.00
42385;BME280;28042;43.986;22.860;2022-11-15T08:24:15;101868.47;;;9.23;100.00
42385;BME280;28042;43.986;22.860;2022-11-15T08:26:40;101800.91;;;8.93;100.00
42385;BME280;28042;43.986;22.860;2022-11-15T08:29:06;101857.69;;;9.40;100.00
42385;BME280;28042;43.986;22.860;2022-11-15T08:31:34;101825.44;;;9.27;100.00
42385;BME280;28042;43.986;22.860;2022-11-15T08:34:00;101851.06;;;9.42;100.00
42385;BME280;28042;43.986;22.860;2022-11-15T08:36:26;101846.13;;;9.46;100.00
42385;BME280;28042;43.986;22.860;2022-11-15T08:38:51;101843.16;;;9.57;100.00
42385;BME280;28042;43.986;22.860;2022-11-15T08:41:27;101802.84;;;9.34;100.00
42385;BME280;28042;43.986;22.860;2022-11-15T08:43:55;101847.91;;;9.63;100.00
42385;BME280;28042;43.986;22.860;2022-11-15T08:46:20;101810.03;;;9.44;100.00
42385;BME280;28042;43.986;22.860;2022-11-15T08:48:45;101850.28;;;9.58;100.00
42385;BME280;28042;43.986;22.860;2022-11-15T08:51:11;101841.75;;;9.53;100.00
42385;BME280;28042;43.986;22.860;2022-11-15T08:53:36;101851.88;;;9.69;100.00
42385;BME280;28042;43.986;22.860;2022-11-15T08:56:02;101802.94;;;9.51;100.00
42385;BME280;28042;43.986;22.860;2022-11-15T08:58:28;101803.81;;;9.59;100.00
42385;BME280;28042;43.986;22.860;2022-11-15T09:00:54;101804.03;;;9.66;100.00
42385;BME280;28042;43.986;22.860;2022-11-15T09:03:20;101794.13;;;9.57;100.00
42385;BME280;28042;43.986;22.860;2022-11-15T09:05:46;101835.38;;;9.78;100.00
42385;BME280;28042;43.986;22.860;2022-11-15T09:08:11;101774.66;;;9.52;100.00
42385;BME280;28042;43.986;22.860;2022-11-15T09:10:38;101800.78;;;9.71;100.00
42385;BME280;28042;43.986;22.860;2022-11-15T09:13:03;101783.53;;;9.54;100.00
42385;BME280;28042;43.986;22.860;2022-11-15T09:15:29;101831.19;;;9.50;100.00
42385;BME280;28042;43.986;22.860;2022-11-15T09:17:58;101831.81;;;9.44;100.00
42385;BME280;28042;43.986;22.860;2022-11-15T09:20:23;101839.69;;;9.55;100.00
42385;BME280;28042;43.986;22.860;2022-11-15T09:22:49;101826.75;;;9.49;100.00
42385;BME280;28042;43.986;22.860;2022-11-15T09:25:14;101755.81;;;9.16;100.00
42385;BME280;28042;43.986;22.860;2022-11-15T09:27:39;101779.03;;;9.37;100.00
42385;BME280;28042;43.986;22.860;2022-11-15T09:30:05;101769.50;;;9.32;100.00
42385;BME280;28042;43.986;22.860;2022-11-15T09:32:31;101811.81;;;9.61;100.00
42385;BME280;28042;43.986;22.860;2022-11-15T09:34:57;101782.81;;;9.44;100.00
42385;BME280;28042;43.986;22.860;2022-11-15T09:37:22;101810.63;;;9.63;100.00
42385;BME280;28042;43.986;22.860;2022-11-15T09:39:48;101790.56;;;9.65;100.00
42385;BME280;28042;43.986;22.860;2022-11-15T09:50:34;101737.13;;;9.29;100.00
42385;BME280;28042;43.986;22.860;2022-11-15T09:53:01;101772.63;;;9.54;100.00
42385;BME280;28042;43.986;22.860;2022-11-15T09:55:38;101732.22;;;9.33;100.00
42385;BME280;28042;43.986;22.860;2022-11-15T09:58:25;101780.63;;;9.55;100.00
42385;BME280;28042;43.986;22.860;2022-11-15T10:00:52;101761.41;;;9.57;100.00
42385;BME280;28042;43.986;22.860;2022-11-15T10:03:34;101766.19;;;9.63;100.00
42385;BME280;28042;43.986;22.860;2022-11-15T10:06:03;101726.97;;;9.40;100.00
42385;BME280;28042;43.986;22.860;2022-11-15T10:11:25;101711.31;;;9.42;100.00
42385;BME280;28042;43.986;22.860;2022-11-15T10:13:56;101714.03;;;9.42;100.00
42385;BME280;28042;43.986;22.860;2022-11-15T10:16:45;101749.69;;;9.56;100.00
42385;BME280;28042;43.986;22.860;2022-11-15T10:19:26;101743.50;;;9.54;100.00
42385;BME280;28042;43.986;22.860;2022-11-15T10:22:17;101748.47;;;9.51;100.00
42385;BME280;28042;43.986;22.860;2022-11-15T10:24:46;101741.34;;;9.58;100.00
42385;BME280;28042;43.986;22.860;2022-11-15T10:27:15;101734.19;;;9.57;100.00
42385;BME280;28042;43.986;22.860;2022-11-15T10:29:46;101712.66;;;9.38;100.00
42385;BME280;28042;43.986;22.860;2022-11-15T10:32:14;101691.16;;;9.18;100.00
42385;BME280;28042;43.986;22.860;2022-11-15T10:34:40;101681.44;;;9.16;100.00
42385;BME280;28042;43.986;22.860;2022-11-15T10:37:05;101713.69;;;9.45;100.00
42385;BME280;28042;43.986;22.860;2022-11-15T10:39:31;101660.72;;;9.23;100.00
42385;BME280;28042;43.986;22.860;2022-11-15T10:42:15;101703.34;;;9.48;100.00
42385;BME280;28042;43.986;22.860;2022-11-15T10:44:43;101713.06;;;9.59;100.00
42385;BME280;28042;43.986;22.860;2022-11-15T10:49:59;101655.19;;;9.49;100.00
42385;BME280;28042;43.986;22.860;2022-11-15T10:52:25;101700.34;;;9.92;100.00
42385;BME280;28042;43.986;22.860;2022-11-15T10:55:05;101707.69;;;10.00;100.00
42385;BME280;28042;43.986;22.860;2022-11-15T10:57:51;101687.41;;;9.94;100.00
42385;BME280;28042;43.986;22.860;2022-11-15T11:02:58;101653.84;;;9.69;98.76
42385;BME280;28042;43.986;22.860;2022-11-15T11:08:01;101655.38;;;9.88;97.67
42385;BME280;28042;43.986;22.860;2022-11-15T11:10:27;101667.97;;;9.89;96.78
42385;BME280;28042;43.986;22.860;2022-11-15T11:12:53;101673.41;;;9.89;96.54
42385;BME280;28042;43.986;22.860;2022-11-15T11:15:18;101633.41;;;9.65;97.66
42385;BME280;28042;43.986;22.860;2022-11-15T11:18:02;101672.25;;;10.00;97.97
42385;BME280;28042;43.986;22.860;2022-11-15T11:20:40;101670.53;;;10.07;98.05
42385;BME280;28042;43.986;22.860;2022-11-15T11:23:15;101668.81;;;9.98;96.84
42385;BME280;28042;43.986;22.860;2022-11-15T11:34:55;101618.75;;;9.50;98.40
42385;BME280;28042;43.986;22.860;2022-11-15T11:40:20;101650.75;;;9.72;98.04
42385;BME280;28042;43.986;22.860;2022-11-15T11:50:42;101622.50;;;9.49;100.00
42385;BME280;28042;43.986;22.860;2022-11-15T11:53:32;101628.13;;;9.47;99.34
42385;BME280;28042;43.986;22.860;2022-11-15T11:56:13;101630.97;;;9.38;98.94
42385;BME280;28042;43.986;22.860;2022-11-15T11:58:44;101633.03;;;9.52;100.00
42385;BME280;28042;43.986;22.860;2022-11-15T12:03:50;101620.09;;;9.54;100.00
42385;BME280;28042;43.986;22.860;2022-11-15T12:09:07;101607.50;;;9.45;100.00
42385;BME280;28042;43.986;22.860;2022-11-15T12:12:13;101550.78;;;9.16;100.00
42385;BME280;28042;43.986;22.860;2022-11-15T12:17:10;101583.31;;;9.42;100.00
42385;BME280;28042;43.986;22.860;2022-11-15T12:19:36;101560.34;;;9.36;100.00
42385;BME280;28042;43.986;22.860;2022-11-15T12:24:58;101584.69;;;9.62;100.00
42385;BME280;28042;43.986;22.860;2022-11-15T12:30:00;101546.53;;;9.29;100.00
42385;BME280;28042;43.986;22.860;2022-11-15T12:32:34;101574.31;;;9.49;100.00
42385;BME280;28042;43.986;22.860;2022-11-15T12:35:02;101587.25;;;9.47;100.00
42385;BME280;28042;43.986;22.860;2022-11-15T12:44:57;101573.09;;;9.35;100.00
42385;BME280;28042;43.986;22.860;2022-11-15T12:47:25;101556.75;;;9.19;100.00
42385;BME280;28042;43.986;22.860;2022-11-15T12:49:52;101526.09;;;9.01;100.00
42385;BME280;28042;43.986;22.860;2022-11-15T12:52:18;101569.69;;;9.33;100.00
42385;BME280;28042;43.986;22.860;2022-11-15T12:54:55;101571.38;;;9.26;100.00
42385;BME280;28042;43.986;22.860;2022-11-15T12:57:32;101516.25;;;9.08;100.00
42385;BME280;28042;43.986;22.860;2022-11-15T13:00:35;101572.06;;;9.28;100.00
42385;BME280;28042;43.986;22.860;2022-11-15T13:02:48;101559.81;;;9.24;100.00
42385;BME280;28042;43.986;22.860;2022-11-15T13:33:24;101540.41;;;9.27;100.00
42385;BME280;28042;43.986;22.860;2022-11-15T13:35:53;101502.28;;;9.03;100.00
42385;BME280;28042;43.986;22.860;2022-11-15T13:38:31;101492.78;;;9.07;100.00
42385;BME280;28042;43.986;22.860;2022-11-15T13:40:59;101533.09;;;9.28;100.00
42385;BME280;28042;43.986;22.860;2022-11-15T13:43:29;101513.34;;;9.18;100.00
42385;BME280;28042;43.986;22.860;2022-11-15T13:48:34;101527.81;;;9.18;100.00
42385;BME280;28042;43.986;22.860;2022-11-15T13:54:31;101512.69;;;9.16;100.00
42385;BME280;28042;43.986;22.860;2022-11-15T14:00:05;101486.47;;;8.90;100.00
42385;BME280;28042;43.986;22.860;2022-11-15T14:02:35;101449.53;;;8.80;100.00
42385;BME280;28042;43.986;22.860;2022-11-15T14:05:19;101502.66;;;9.16;100.00
42385;BME280;28042;43.986;22.860;2022-11-15T14:07:56;101501.59;;;9.09;100.00
42385;BME280;28042;43.986;22.860;2022-11-15T14:10:36;101509.09;;;9.07;100.00
42385;BME280;28042;43.986;22.860;2022-11-15T14:13:03;101452.59;;;8.76;100.00
42385;BME280;28042;43.986;22.860;2022-11-15T14:15:34;101493.13;;;9.04;100.00
42385;BME280;28042;43.986;22.860;2022-11-15T14:18:00;101485.63;;;9.06;100.00
42385;BME280;28042;43.986;22.860;2022-11-15T14:20:36;101452.94;;;8.90;100.00
42385;BME280;28042;43.986;22.860;2022-11-15T14:23:23;101495.81;;;9.20;100.00
42385;BME280;28042;43.986;22.860;2022-11-15T14:25:56;101493.47;;;9.17;100.00
42385;BME280;28042;43.986;22.860;2022-11-15T14:30:52;101439.16;;;8.83;100.00
42385;BME280;28042;43.986;22.860;2022-11-15T14:35:46;101441.56;;;8.86;100.00
42385;BME280;28042;43.986;22.860;2022-11-15T14:38:12;101474.91;;;8.96;100.00
42385;BME280;28042;43.986;22.860;2022-11-15T14:40:37;101436.59;;;8.73;100.00
42385;BME280;28042;43.986;22.860;2022-11-15T14:43:03;101478.78;;;8.94;100.00
42385;BME280;28042;43.986;22.860;2022-11-15T14:45:28;101427.09;;;8.61;100.00
42385;BME280;28042;43.986;22.860;2022-11-15T14:47:54;101470.47;;;8.87;100.00
42385;BME280;28042;43.986;22.860;2022-11-15T14:50:20;101424.69;;;8.66;100.00
42385;BME280;28042;43.986;22.860;2022-11-15T14:52:47;101402.59;;;8.53;100.00
42385;BME280;28042;43.986;22.860;2022-11-15T14:55:21;101472.34;;;8.78;100.00
42385;BME280;28042;43.986;22.860;2022-11-15T14:57:50;101413.63;;;8.43;100.00
42385;BME280;28042;43.986;22.860;2022-11-15T15:00:16;101413.78;;;8.50;100.00
42385;BME280;28042;43.986;22.860;2022-11-15T15:02:43;101458.03;;;8.76;100.00
42385;BME280;28042;43.986;22.860;2022-11-15T15:05:19;101447.50;;;8.73;100.00
42385;BME280;28042;43.986;22.860;2022-11-15T15:07:45;101433.22;;;8.71;100.00